createdAt,value
2019-01-27T00:00:33.070Z,4.50
2019-01-27T00:02:59.788Z,4.50
2019-01-27T00:05:26.310Z,4.50
2019-01-27T00:07:53.024Z,4.50
2019-01-27T00:10:19.597Z,4.50
2019-01-27T00:12:46.168Z,4.40
2019-01-27T00:15:12.993Z,4.40
2019-01-27T00:17:39.569Z,4.40
2019-01-27T00:20:10.234Z,4.40
2019-01-27T00:22:36.694Z,4.40
2019-01-27T00:25:05.367Z,4.50
2019-01-27T00:27:32.020Z,4.40
2019-01-27T00:29:58.606Z,4.40
2019-01-27T00:32:25.280Z,4.40
2019-01-27T00:34:51.949Z,4.40
2019-01-27T00:37:18.571Z,4.40
2019-01-27T00:39:45.232Z,4.40
2019-01-27T00:42:11.908Z,4.30
2019-01-27T00:44:38.419Z,4.40
2019-01-27T00:47:05.096Z,4.30
2019-01-27T00:49:31.912Z,4.40
2019-01-27T00:51:59.945Z,4.30
2019-01-27T00:54:26.723Z,4.30
2019-01-27T00:56:53.467Z,4.30
2019-01-27T00:59:20.335Z,4.30
2019-01-27T01:01:47.301Z,4.30
2019-01-27T01:04:13.981Z,4.20
2019-01-27T01:06:40.561Z,4.20
2019-01-27T01:09:08.981Z,4.30
2019-01-27T01:11:35.595Z,4.30
2019-01-27T01:14:02.120Z,4.30
2019-01-27T01:16:28.636Z,4.40
2019-01-27T01:18:55.163Z,4.30
2019-01-27T01:21:21.725Z,4.40
2019-01-27T01:23:48.256Z,4.30
2019-01-27T01:26:14.841Z,4.30
2019-01-27T01:28:41.365Z,4.30
2019-01-27T01:31:07.931Z,4.20
2019-01-27T01:33:34.456Z,4.30
2019-01-27T01:36:01.038Z,4.40
2019-01-27T01:38:27.564Z,4.30
2019-01-27T01:40:54.140Z,4.30
2019-01-27T01:43:20.661Z,4.30
2019-01-27T01:45:47.186Z,4.30
2019-01-27T01:48:13.747Z,4.30
2019-01-27T01:50:40.281Z,4.20
2019-01-27T01:53:06.849Z,4.20
2019-01-27T01:55:33.523Z,4.20
2019-01-27T01:58:00.064Z,4.30
2019-01-27T02:00:27.584Z,4.20
2019-01-27T02:02:54.152Z,4.20
2019-01-27T02:05:20.975Z,4.20
2019-01-27T02:07:47.546Z,4.20
2019-01-27T02:10:16.160Z,4.10
2019-01-27T02:12:43.130Z,4.20
2019-01-27T02:15:16.332Z,4.10
2019-01-27T02:17:42.889Z,4.20
2019-01-27T02:20:09.563Z,4.20
2019-01-27T02:22:36.168Z,4.20
2019-01-27T02:25:04.045Z,4.10
2019-01-27T02:27:30.563Z,4.10
2019-01-27T02:29:57.138Z,4.20
2019-01-27T02:32:23.655Z,4.10
2019-01-27T02:34:50.232Z,4.20
2019-01-27T02:37:16.761Z,4.10
2019-01-27T02:39:43.379Z,4.20
2019-01-27T02:42:09.968Z,4.30
2019-01-27T02:44:36.588Z,4.20
2019-01-27T02:47:03.239Z,4.30
2019-01-27T02:49:29.910Z,4.20
2019-01-27T02:51:56.428Z,4.30
2019-01-27T02:54:23.300Z,4.10
2019-01-27T02:56:50.132Z,4.10
2019-01-27T02:59:16.764Z,4.20
2019-01-27T03:01:43.309Z,4.30
2019-01-27T03:04:10.073Z,4.20
2019-01-27T03:06:41.512Z,4.10
2019-01-27T03:09:10.285Z,4.20
2019-01-27T03:11:49.131Z,4.20
2019-01-27T03:14:16.212Z,4.20
2019-01-27T03:16:42.889Z,4.20
2019-01-27T03:19:09.456Z,4.20
2019-01-27T03:21:35.991Z,4.10
2019-01-27T03:24:03.165Z,4.20
2019-01-27T03:26:29.748Z,4.20
2019-01-27T03:28:56.270Z,4.20
2019-01-27T03:31:22.953Z,4.20
2019-01-27T03:33:49.667Z,4.30
2019-01-27T03:36:16.239Z,4.20
2019-01-27T03:38:42.764Z,4.20
2019-01-27T03:41:09.300Z,4.10
2019-01-27T03:43:36.192Z,4.20
2019-01-27T03:46:03.653Z,4.20
2019-01-27T03:48:30.409Z,4.10
2019-01-27T03:50:56.879Z,4.00
2019-01-27T03:53:23.511Z,4.00
2019-01-27T03:55:50.196Z,4.00
2019-01-27T03:58:16.756Z,4.00
2019-01-27T04:00:43.351Z,4.00
2019-01-27T04:03:10.132Z,4.10
2019-01-27T04:05:36.770Z,4.10
2019-01-27T04:08:03.834Z,4.00
2019-01-27T04:10:30.692Z,4.00
2019-01-27T04:12:57.448Z,3.90
2019-01-27T04:15:24.083Z,4.00
2019-01-27T04:17:50.968Z,4.10
2019-01-27T04:20:19.870Z,4.00
2019-01-27T04:22:46.509Z,4.00
2019-01-27T04:25:13.972Z,4.00
2019-01-27T04:27:40.908Z,4.10
2019-01-27T04:30:11.284Z,4.10
2019-01-27T04:32:37.957Z,3.90
2019-01-27T04:35:07.690Z,3.90
2019-01-27T04:37:34.262Z,4.00
2019-01-27T04:40:00.772Z,3.90
2019-01-27T04:42:27.348Z,4.00
2019-01-27T04:44:53.968Z,4.00
2019-01-27T04:47:20.557Z,4.00
2019-01-27T04:49:46.981Z,3.90
2019-01-27T04:52:13.657Z,4.00
2019-01-27T04:54:40.226Z,3.90
2019-01-27T04:57:06.749Z,4.00
2019-01-27T04:59:33.280Z,4.10
2019-01-27T05:01:59.851Z,3.90
2019-01-27T05:04:28.379Z,3.90
2019-01-27T05:06:54.937Z,4.00
2019-01-27T05:09:21.553Z,4.10
2019-01-27T05:11:49.729Z,4.00
2019-01-27T05:14:16.248Z,4.00
2019-01-27T05:16:42.929Z,4.00
2019-01-27T05:19:09.547Z,3.90
2019-01-27T05:21:36.890Z,4.00
2019-01-27T05:24:03.726Z,3.90
2019-01-27T05:26:30.395Z,3.90
2019-01-27T05:28:58.615Z,3.80
2019-01-27T05:31:25.182Z,3.80
2019-01-27T05:33:51.704Z,3.90
2019-01-27T05:36:18.451Z,3.90
2019-01-27T05:38:44.968Z,3.90
2019-01-27T05:41:11.557Z,3.90
2019-01-27T05:43:38.144Z,3.90
2019-01-27T05:46:04.673Z,4.00
2019-01-27T05:48:31.308Z,4.00
2019-01-27T05:50:57.844Z,4.00
2019-01-27T05:53:24.508Z,4.00
2019-01-27T05:55:51.228Z,4.10
2019-01-27T05:58:17.789Z,3.90
2019-01-27T06:00:46.216Z,3.90
2019-01-27T06:03:12.969Z,4.00
2019-01-27T06:05:39.501Z,4.00
2019-01-27T06:08:06.153Z,3.90
2019-01-27T06:10:32.672Z,3.80
2019-01-27T06:12:59.427Z,3.80
2019-01-27T06:15:26.343Z,3.90
2019-01-27T06:17:52.999Z,4.00
2019-01-27T06:20:19.629Z,4.00
2019-01-27T06:22:46.352Z,4.10
2019-01-27T06:25:17.026Z,4.20
2019-01-27T06:27:43.760Z,4.10
2019-01-27T06:30:22.332Z,3.90
2019-01-27T06:32:51.089Z,4.00
2019-01-27T06:35:17.721Z,4.00
2019-01-27T06:37:44.358Z,4.00
2019-01-27T06:40:11.101Z,3.90
2019-01-27T06:42:37.688Z,4.00
2019-01-27T06:45:05.637Z,4.00
2019-01-27T06:47:32.265Z,4.00
2019-01-27T06:49:58.815Z,4.00
2019-01-27T06:52:25.458Z,4.00
2019-01-27T06:54:52.013Z,4.00
2019-01-27T06:57:19.838Z,4.10
2019-01-27T06:59:51.272Z,4.10
2019-01-27T07:02:20.603Z,3.90
2019-01-27T07:04:49.309Z,4.00
2019-01-27T07:07:21.112Z,4.10
2019-01-27T07:09:52.474Z,4.20
2019-01-27T07:12:26.368Z,4.40
2019-01-27T07:15:03.722Z,4.40
2019-01-27T07:17:35.061Z,4.20
2019-01-27T07:20:03.613Z,4.50
2019-01-27T07:22:32.055Z,4.60
2019-01-27T07:25:06.579Z,4.60
2019-01-27T07:27:44.059Z,4.40
2019-01-27T07:30:25.849Z,4.40
2019-01-27T07:32:55.281Z,4.40
2019-01-27T07:35:23.844Z,4.40
2019-01-27T07:37:58.175Z,4.30
2019-01-27T07:40:26.841Z,4.40
2019-01-27T07:43:01.456Z,4.40
2019-01-27T07:45:33.149Z,4.50
2019-01-27T07:48:07.409Z,4.50
2019-01-27T07:50:38.740Z,4.50
2019-01-27T07:53:13.983Z,4.40
2019-01-27T07:55:42.524Z,4.20
2019-01-27T07:58:19.901Z,4.40
2019-01-27T08:00:54.302Z,4.30
2019-01-27T08:03:29.161Z,4.40
2019-01-27T08:05:57.714Z,4.40
2019-01-27T08:08:26.337Z,4.60
2019-01-27T08:11:06.608Z,4.60
2019-01-27T08:13:35.044Z,4.60
2019-01-27T08:16:06.267Z,4.60
2019-01-27T08:18:52.935Z,4.50
2019-01-27T08:21:21.419Z,4.50
2019-01-27T08:23:52.457Z,4.50
2019-01-27T08:26:37.631Z,4.40
2019-01-27T08:29:06.051Z,4.40
2019-01-27T08:31:34.525Z,4.30
2019-01-27T08:34:19.573Z,4.20
2019-01-27T08:36:48.035Z,4.20
2019-01-27T08:39:25.579Z,4.20
2019-01-27T08:42:03.025Z,4.20
2019-01-27T08:44:40.409Z,4.30
2019-01-27T08:47:07.807Z,4.20
2019-01-27T08:49:34.709Z,4.30
2019-01-27T08:52:01.292Z,4.40
2019-01-27T08:54:30.459Z,4.50
2019-01-27T08:56:57.537Z,4.40
2019-01-27T08:59:25.061Z,4.40
2019-01-27T09:02:09.921Z,4.60
2019-01-27T09:04:38.730Z,4.50
2019-01-27T09:07:11.635Z,4.60
2019-01-27T09:09:41.890Z,4.50
2019-01-27T09:12:13.789Z,4.60
2019-01-27T09:14:43.448Z,4.60
2019-01-27T09:17:30.026Z,4.60
2019-01-27T09:19:59.244Z,4.60
2019-01-27T09:22:29.113Z,4.70
2019-01-27T09:25:01.746Z,4.70
2019-01-27T09:27:35.289Z,4.70
2019-01-27T09:30:08.097Z,4.60
2019-01-27T09:32:38.601Z,4.70
2019-01-27T09:35:09.696Z,4.60
2019-01-27T09:37:42.389Z,4.70
2019-01-27T09:40:13.866Z,4.80
2019-01-27T09:42:46.543Z,4.90
2019-01-27T09:45:24.872Z,4.80
2019-01-27T09:48:03.391Z,4.90
2019-01-27T09:50:33.048Z,4.80
2019-01-27T09:53:18.203Z,5.00
2019-01-27T09:55:57.052Z,5.00
2019-01-27T09:58:26.725Z,5.00
2019-01-27T10:01:02.084Z,5.00
2019-01-27T10:03:43.865Z,4.80
2019-01-27T10:06:22.352Z,4.90
2019-01-27T10:08:51.817Z,4.90
2019-01-27T10:11:26.514Z,4.90
2019-01-27T10:13:53.515Z,5.00
2019-01-27T10:16:38.152Z,5.10
2019-01-27T10:19:19.897Z,5.10
2019-01-27T10:21:49.907Z,5.00
2019-01-27T10:24:25.391Z,5.00
2019-01-27T10:27:04.231Z,5.20
2019-01-27T10:29:39.313Z,5.20
2019-01-27T10:32:14.946Z,5.30
2019-01-27T10:34:44.408Z,5.10
2019-01-27T10:37:16.699Z,5.20
2019-01-27T10:39:52.143Z,5.30
2019-01-27T10:42:27.587Z,5.30
2019-01-27T10:45:03.421Z,5.40
2019-01-27T10:47:46.866Z,5.50
2019-01-27T10:50:17.679Z,5.60
2019-01-27T10:52:48.365Z,5.60
2019-01-27T10:55:18.335Z,5.60
2019-01-27T10:57:50.680Z,5.60
2019-01-27T11:00:36.138Z,5.70
2019-01-27T11:03:06.807Z,5.60
2019-01-27T11:05:45.357Z,5.80
2019-01-27T11:08:14.985Z,5.70
2019-01-27T11:11:00.477Z,5.80
2019-01-27T11:13:30.434Z,5.80
2019-01-27T11:16:06.066Z,5.80
2019-01-27T11:18:35.804Z,5.90
2019-01-27T11:21:08.601Z,5.90
2019-01-27T11:23:40.962Z,5.80
2019-01-27T11:26:13.265Z,6.00
2019-01-27T11:28:52.037Z,6.00
2019-01-27T11:31:36.580Z,5.90
2019-01-27T11:34:06.872Z,5.70
2019-01-27T11:36:42.525Z,5.60
2019-01-27T11:39:18.277Z,5.70
2019-01-27T11:41:49.641Z,5.70
2019-01-27T11:44:19.323Z,5.60
2019-01-27T11:46:58.642Z,5.80
2019-01-27T11:49:28.437Z,5.80
2019-01-27T11:51:56.376Z,5.70
2019-01-27T11:54:24.822Z,5.80
2019-01-27T11:56:53.134Z,5.90
2019-01-27T11:59:20.865Z,6.00
2019-01-27T12:01:48.700Z,5.90
2019-01-27T12:04:16.895Z,5.70
2019-01-27T12:06:45.291Z,5.80
2019-01-27T12:09:13.291Z,5.90
2019-01-27T12:11:41.520Z,6.10
2019-01-27T12:14:09.521Z,6.00
2019-01-27T12:16:37.160Z,6.00
2019-01-27T12:19:05.213Z,6.00
2019-01-27T12:21:33.601Z,6.00
2019-01-27T12:24:01.669Z,5.90
2019-01-27T12:26:29.994Z,6.10
2019-01-27T12:28:57.825Z,5.90
2019-01-27T12:31:26.036Z,5.80
2019-01-27T12:33:54.378Z,5.90
2019-01-27T12:36:24.072Z,5.90
2019-01-27T12:38:52.400Z,6.00
2019-01-27T12:41:20.637Z,6.10
2019-01-27T12:43:48.393Z,6.10
2019-01-27T12:46:16.149Z,6.10
2019-01-27T12:48:44.176Z,5.90
2019-01-27T12:51:12.333Z,6.00
2019-01-27T12:53:40.071Z,6.00
2019-01-27T12:56:09.399Z,5.90
2019-01-27T12:58:37.844Z,6.00
2019-01-27T13:01:05.760Z,6.00
2019-01-27T13:03:34.098Z,5.90
2019-01-27T13:06:01.906Z,5.90
2019-01-27T13:08:30.345Z,5.90
2019-01-27T13:10:58.692Z,6.00
2019-01-27T13:13:27.002Z,6.00
2019-01-27T13:15:54.970Z,6.00
2019-01-27T13:18:23.367Z,6.10
2019-01-27T13:20:51.425Z,5.90
2019-01-27T13:23:19.937Z,5.90
2019-01-27T13:25:47.593Z,6.10
2019-01-27T13:28:16.045Z,5.90
2019-01-27T13:30:44.356Z,6.00
2019-01-27T13:33:12.724Z,6.10
2019-01-27T13:35:41.019Z,6.10
2019-01-27T13:38:09.256Z,6.10
2019-01-27T13:40:36.979Z,6.10
2019-01-27T13:43:05.199Z,6.00
2019-01-27T13:45:32.991Z,6.00
2019-01-27T13:48:01.337Z,6.00
2019-01-27T13:50:29.545Z,6.10
2019-01-27T13:52:58.132Z,6.30
2019-01-27T13:55:30.675Z,6.10
2019-01-27T13:57:58.456Z,6.20
2019-01-27T14:00:31.840Z,6.00
2019-01-27T14:03:00.356Z,6.00
2019-01-27T14:05:28.685Z,6.10
2019-01-27T14:07:56.672Z,6.00
2019-01-27T14:10:26.400Z,6.00
2019-01-27T14:12:54.225Z,6.10
2019-01-27T14:15:28.007Z,6.10
2019-01-27T14:17:56.349Z,6.10
2019-01-27T14:20:24.382Z,6.20
2019-01-27T14:22:52.746Z,6.20
2019-01-27T14:25:25.007Z,6.30
2019-01-27T14:27:53.109Z,6.20
2019-01-27T14:30:23.852Z,6.20
2019-01-27T14:32:51.608Z,6.20
2019-01-27T14:35:19.865Z,6.20
2019-01-27T14:37:47.771Z,6.20
2019-01-27T14:40:26.736Z,6.30
2019-01-27T14:42:54.679Z,6.20
2019-01-27T14:45:25.542Z,6.30
2019-01-27T14:47:53.983Z,6.20
2019-01-27T14:50:27.466Z,6.20
2019-01-27T14:52:55.861Z,6.20
2019-01-27T14:55:23.728Z,6.20
2019-01-27T14:57:51.797Z,6.20
2019-01-27T15:00:23.017Z,6.30
2019-01-27T15:02:51.491Z,6.30
2019-01-27T15:05:19.801Z,6.30
2019-01-27T15:07:49.701Z,6.10
2019-01-27T15:10:22.078Z,6.10
2019-01-27T15:12:50.448Z,6.00
2019-01-27T15:15:20.025Z,6.20
2019-01-27T15:17:48.333Z,6.30
2019-01-27T15:20:36.885Z,6.00
2019-01-27T15:23:05.742Z,6.00
2019-01-27T15:25:34.029Z,6.00
2019-01-27T15:28:02.460Z,6.00
2019-01-27T15:30:35.786Z,6.10
2019-01-27T15:33:05.443Z,6.10
2019-01-27T15:35:33.792Z,6.00
2019-01-27T15:38:02.409Z,5.90
2019-01-27T15:40:30.768Z,5.90
2019-01-27T15:42:59.378Z,5.90
2019-01-27T15:45:28.670Z,6.00
2019-01-27T15:47:56.740Z,5.90
2019-01-27T15:50:32.590Z,5.80
2019-01-27T15:53:00.381Z,5.90
2019-01-27T15:55:27.977Z,5.80
2019-01-27T15:57:55.664Z,5.80
2019-01-27T16:00:25.578Z,5.80
2019-01-27T16:02:53.436Z,5.80
2019-01-27T16:05:22.691Z,5.70
2019-01-27T16:07:50.997Z,5.80
2019-01-27T16:10:25.468Z,5.90
2019-01-27T16:12:55.760Z,5.80
2019-01-27T16:15:26.059Z,5.80
2019-01-27T16:17:53.944Z,5.90
2019-01-27T16:20:22.253Z,5.90
2019-01-27T16:23:04.223Z,5.80
2019-01-27T16:25:32.529Z,5.90
2019-01-27T16:28:00.960Z,5.80
2019-01-27T16:30:48.814Z,5.90
2019-01-27T16:33:19.289Z,5.90
2019-01-27T16:35:47.605Z,5.80
2019-01-27T16:38:15.924Z,5.80
2019-01-27T16:40:44.313Z,5.80
2019-01-27T16:43:12.636Z,5.80
2019-01-27T16:45:40.881Z,5.70
2019-01-27T16:48:09.201Z,5.70
2019-01-27T16:50:37.414Z,5.90
2019-01-27T16:53:05.376Z,5.80
2019-01-27T16:55:33.510Z,5.80
2019-01-27T16:58:01.286Z,5.90
2019-01-27T17:00:30.313Z,6.00
2019-01-27T17:02:58.376Z,5.90
2019-01-27T17:05:26.645Z,5.80
2019-01-27T17:07:54.756Z,5.70
2019-01-27T17:10:24.588Z,5.70
2019-01-27T17:12:52.919Z,5.80
2019-01-27T17:15:21.255Z,5.80
2019-01-27T17:17:49.473Z,5.70
2019-01-27T17:20:26.067Z,5.60
2019-01-27T17:22:54.380Z,5.60
2019-01-27T17:25:22.801Z,5.60
2019-01-27T17:27:51.141Z,5.50
2019-01-27T17:30:25.897Z,5.70
2019-01-27T17:32:54.499Z,5.80
2019-01-27T17:35:24.310Z,5.70
2019-01-27T17:37:52.738Z,5.70
2019-01-27T17:40:20.715Z,5.80
2019-01-27T17:42:49.233Z,5.70
2019-01-27T17:45:19.022Z,5.80
2019-01-27T17:47:47.600Z,5.70
2019-01-27T17:50:18.536Z,5.70
2019-01-27T17:52:47.508Z,5.80
2019-01-27T17:55:38.682Z,5.80
2019-01-27T17:58:19.743Z,5.80
2019-01-27T18:00:50.321Z,5.80
2019-01-27T18:03:37.331Z,5.70
2019-01-27T18:06:13.340Z,5.70
2019-01-27T18:08:46.651Z,5.70
2019-01-27T18:11:16.941Z,5.80
2019-01-27T18:13:45.914Z,5.60
2019-01-27T18:16:14.947Z,5.70
2019-01-27T18:18:43.433Z,5.60
2019-01-27T18:21:12.013Z,5.60
2019-01-27T18:23:40.453Z,5.70
2019-01-27T18:26:09.095Z,5.70
2019-01-27T18:28:37.777Z,5.70
2019-01-27T18:31:06.813Z,5.70
2019-01-27T18:33:35.947Z,5.60
2019-01-27T18:36:05.415Z,5.80
2019-01-27T18:38:34.450Z,5.60
2019-01-27T18:41:03.402Z,5.50
2019-01-27T18:43:32.037Z,5.60
2019-01-27T18:46:00.948Z,5.60
2019-01-27T18:48:29.939Z,5.50
2019-01-27T18:50:58.750Z,5.60
2019-01-27T18:53:46.999Z,5.60
2019-01-27T18:56:17.109Z,5.40
2019-01-27T18:58:53.132Z,5.40
2019-01-27T19:01:36.571Z,5.50
2019-01-27T19:04:07.245Z,5.50
2019-01-27T19:06:46.777Z,5.40
2019-01-27T19:09:34.535Z,5.40
2019-01-27T19:12:05.653Z,5.50
2019-01-27T19:14:48.467Z,5.50
2019-01-27T19:17:22.102Z,5.50
2019-01-27T19:20:02.213Z,5.50
2019-01-27T19:22:38.928Z,5.40
2019-01-27T19:25:13.005Z,5.50
2019-01-27T19:27:44.420Z,5.40
2019-01-27T19:30:22.479Z,5.50
2019-01-27T19:33:05.220Z,5.30
2019-01-27T19:35:45.400Z,5.40
2019-01-27T19:38:22.301Z,5.40
2019-01-27T19:40:59.264Z,5.50
2019-01-27T19:43:33.221Z,5.40
2019-01-27T19:46:16.213Z,5.40
2019-01-27T19:49:03.613Z,5.40
2019-01-27T19:51:37.252Z,5.50
2019-01-27T19:54:23.841Z,5.50
2019-01-27T19:57:10.056Z,5.40
2019-01-27T19:59:50.313Z,5.40
2019-01-27T20:02:20.658Z,5.40
2019-01-27T20:04:57.637Z,5.40
2019-01-27T20:07:34.624Z,5.30
2019-01-27T20:10:10.117Z,5.20
2019-01-27T20:12:43.631Z,5.30
2019-01-27T20:15:18.883Z,5.20
2019-01-27T20:17:49.923Z,5.20
2019-01-27T20:20:29.563Z,5.30
2019-01-27T20:23:00.386Z,5.30
2019-01-27T20:25:46.685Z,5.40
2019-01-27T20:28:20.711Z,5.40
2019-01-27T20:31:08.241Z,5.30
2019-01-27T20:33:55.623Z,5.30
2019-01-27T20:36:35.670Z,5.40
2019-01-27T20:39:11.365Z,5.20
2019-01-27T20:41:42.249Z,5.20
2019-01-27T20:44:15.413Z,5.20
2019-01-27T20:46:49.300Z,5.30
2019-01-27T20:49:20.036Z,5.20
2019-01-27T20:51:50.312Z,5.20
2019-01-27T20:54:20.809Z,5.30
2019-01-27T20:57:00.046Z,5.40
2019-01-27T20:59:30.853Z,5.30
2019-01-27T21:02:17.356Z,5.30
2019-01-27T21:04:56.582Z,5.30
2019-01-27T21:07:27.288Z,5.50
2019-01-27T21:10:12.809Z,5.40
2019-01-27T21:13:01.415Z,5.40
2019-01-27T21:15:44.304Z,5.30
2019-01-27T21:18:17.724Z,5.30
2019-01-27T21:20:46.495Z,5.40
2019-01-27T21:23:14.944Z,5.30
2019-01-27T21:25:43.443Z,5.30
2019-01-27T21:28:11.640Z,5.30
2019-01-27T21:30:39.977Z,5.40
2019-01-27T21:33:08.657Z,5.40
2019-01-27T21:35:36.767Z,5.30
2019-01-27T21:38:04.605Z,5.40
2019-01-27T21:40:32.492Z,5.30
2019-01-27T21:43:00.788Z,5.30
2019-01-27T21:45:28.549Z,5.30
2019-01-27T21:47:56.522Z,5.30
2019-01-27T21:50:24.285Z,5.40
2019-01-27T21:52:52.164Z,5.40
2019-01-27T21:55:19.712Z,5.40
2019-01-27T21:57:47.383Z,5.40
2019-01-27T22:00:19.997Z,5.40
2019-01-27T22:02:48.065Z,5.40
2019-01-27T22:05:16.038Z,5.40
2019-01-27T22:07:43.817Z,5.40
2019-01-27T22:10:13.205Z,5.30
2019-01-27T22:12:40.718Z,5.40
2019-01-27T22:15:08.950Z,5.40
2019-01-27T22:17:35.723Z,5.20
2019-01-27T22:20:05.915Z,5.20
2019-01-27T22:22:32.745Z,5.20
2019-01-27T22:24:59.392Z,5.10
2019-01-27T22:27:25.932Z,5.10
2019-01-27T22:29:52.647Z,5.20
2019-01-27T22:32:19.297Z,5.30
2019-01-27T22:34:45.929Z,5.30
2019-01-27T22:37:13.054Z,5.20
2019-01-27T22:39:39.664Z,5.20
2019-01-27T22:42:06.344Z,5.30
2019-01-27T22:44:32.924Z,5.30
2019-01-27T22:46:59.448Z,5.40
2019-01-27T22:49:26.081Z,5.30
2019-01-27T22:51:52.705Z,5.20
2019-01-27T22:54:19.288Z,5.30
2019-01-27T22:56:45.833Z,5.40
2019-01-27T22:59:12.489Z,5.50
2019-01-27T23:01:39.198Z,5.40
2019-01-27T23:04:05.868Z,5.40
2019-01-27T23:06:32.496Z,5.40
2019-01-27T23:08:59.165Z,5.40
2019-01-27T23:11:25.709Z,5.40
2019-01-27T23:13:53.880Z,5.40
2019-01-27T23:16:20.461Z,5.30
2019-01-27T23:18:47.026Z,5.30
2019-01-27T23:21:13.595Z,5.10
2019-01-27T23:23:40.204Z,5.10
2019-01-27T23:26:06.777Z,5.10
2019-01-27T23:28:33.381Z,5.10
2019-01-27T23:30:59.948Z,5.10
2019-01-27T23:33:26.631Z,5.10
2019-01-27T23:35:53.146Z,5.30
2019-01-27T23:38:19.816Z,5.20
2019-01-27T23:40:46.448Z,5.00
2019-01-27T23:43:13.120Z,5.10
2019-01-27T23:45:39.667Z,5.10
2019-01-27T23:48:06.229Z,5.10
2019-01-27T23:50:32.757Z,5.20
2019-01-27T23:52:59.327Z,5.10
2019-01-27T23:55:26.007Z,5.10
2019-01-27T23:57:52.593Z,5.10
